Time;durP1;ratioP1;P1;durP2;ratioP2;P2;SDS_P1;SDS_P2;PMS_P1;PMS_P2;Temp;Humidity;BMP_temperature;BMP_pressure;BME280_temperature;BME280_humidity;BME280_pressure;Samples;Min_cycle;Max_cycle;Signal;HPM_P1;HPM_P2
2021/07/26 00:01:15;;;;;;;3.50;2.90;;;16.60;99.90;;;;;;475251;250;28852;-69
2021/07/26 00:03:17;;;;;;;3.57;3.20;;;16.60;99.90;;;;;;475228;250;28823;-69
2021/07/26 00:05:18;;;;;;;5.53;3.07;;;16.50;99.90;;;;;;475242;250;28768;-69
2021/07/26 00:07:19;;;;;;;3.23;2.93;;;16.60;99.90;;;;;;475246;250;28898;-69
2021/07/26 00:09:20;;;;;;;2.57;2.37;;;16.60;99.90;;;;;;475294;250;28860;-69
2021/07/26 00:11:22;;;;;;;3.73;3.40;;;16.60;99.90;;;;;;475245;250;28902;-69
2021/07/26 00:13:23;;;;;;;4.80;3.13;;;16.60;99.90;;;;;;475231;250;28780;-69
2021/07/26 00:15:24;;;;;;;3.23;2.93;;;16.60;99.90;;;;;;476145;239;29292;-71
2021/07/26 00:17:25;;;;;;;4.70;3.10;;;16.50;99.90;;;;;;474838;250;29515;-71
2021/07/26 00:19:27;;;;;;;3.60;3.30;;;16.50;99.90;;;;;;474841;250;29416;-70
2021/07/26 00:21:28;;;;;;;3.13;2.90;;;16.50;99.90;;;;;;474839;249;29491;-70
2021/07/26 00:23:29;;;;;;;3.10;2.90;;;16.50;99.90;;;;;;474837;250;28971;-70
2021/07/26 00:25:31;;;;;;;3.90;3.43;;;16.50;99.90;;;;;;474835;250;28874;-69
2021/07/26 00:27:32;;;;;;;2.93;2.73;;;16.50;99.90;;;;;;474844;250;29062;-70
2021/07/26 00:29:33;;;;;;;3.03;2.83;;;16.60;99.90;;;;;;474794;250;28903;-70
2021/07/26 00:31:34;;;;;;;4.47;2.80;;;16.50;99.90;;;;;;474793;250;28984;-69
2021/07/26 00:33:46;;;;;;;2.70;2.50;;;16.60;99.90;;;;;;474824;250;28888;-69
2021/07/26 00:35:42;;;;;;;3.70;3.33;;;16.50;99.90;;;;;;474340;250;28913;-71
2021/07/26 00:37:44;;;;;;;3.37;2.90;;;16.50;99.90;;;;;;474823;250;28881;-71
2021/07/26 00:39:45;;;;;;;3.00;2.80;;;16.50;99.90;;;;;;474820;249;28882;-71
2021/07/26 00:41:47;;;;;;;3.27;2.97;;;16.40;99.90;;;;;;474810;249;28931;-71
2021/07/26 00:43:47;;;;;;;3.40;2.80;;;16.40;99.90;;;;;;474799;250;29008;-71
2021/07/26 00:45:51;;;;;;;2.90;2.70;;;16.30;99.90;;;;;;474832;250;29434;-71
2021/07/26 00:47:50;;;;;;;3.40;3.10;;;16.30;99.90;;;;;;474728;250;30194;-69
2021/07/26 00:49:51;;;;;;;3.43;3.13;;;16.30;99.90;;;;;;474828;250;29331;-69
2021/07/26 00:51:52;;;;;;;3.40;3.10;;;16.30;99.90;;;;;;474834;250;29411;-69
2021/07/26 00:53:54;;;;;;;3.13;2.80;;;16.40;99.90;;;;;;474844;250;28895;-69
2021/07/26 00:55:55;;;;;;;3.20;2.93;;;16.40;99.90;;;;;;474847;250;28914;-69
2021/07/26 00:57:56;;;;;;;2.93;2.73;;;16.50;99.90;;;;;;474828;250;28912;-72
2021/07/26 00:59:57;;;;;;;2.90;2.70;;;16.50;99.90;;;;;;474866;250;28880;-72
2021/07/26 01:01:59;;;;;;;2.73;2.53;;;16.50;99.90;;;;;;474840;250;29065;-72
2021/07/26 01:04:00;;;;;;;2.90;2.70;;;16.60;99.90;;;;;;474858;250;28979;-70
2021/07/26 01:06:01;;;;;;;3.63;3.33;;;16.60;99.90;;;;;;474841;250;29005;-72
2021/07/26 01:08:02;;;;;;;2.77;2.57;;;16.60;99.90;;;;;;474829;250;29404;-72
2021/07/26 01:10:04;;;;;;;3.60;3.30;;;16.60;99.90;;;;;;474843;250;28887;-71
2021/07/26 01:12:05;;;;;;;3.00;2.80;;;16.60;99.90;;;;;;474836;250;29365;-70
2021/07/26 01:14:06;;;;;;;3.57;3.07;;;16.50;99.90;;;;;;474829;250;29397;-71
2021/07/26 01:16:08;;;;;;;2.70;2.50;;;16.50;99.90;;;;;;474819;250;29384;-70
2021/07/26 01:18:12;;;;;;;3.63;3.33;;;16.50;99.90;;;;;;477164;249;29056;-69
2021/07/26 01:20:13;;;;;;;3.40;3.10;;;16.50;99.90;;;;;;477124;249;28862;-69
2021/07/26 01:22:14;;;;;;;2.83;2.63;;;16.50;99.90;;;;;;477132;249;28784;-70
2021/07/26 01:24:16;;;;;;;3.50;2.60;;;16.50;99.90;;;;;;477092;249;28812;-72
2021/07/26 01:26:17;;;;;;;3.17;2.87;;;16.50;99.90;;;;;;477128;249;28781;-69
2021/07/26 01:28:18;;;;;;;3.40;3.10;;;16.50;99.90;;;;;;477125;247;28793;-69
2021/07/26 01:30:19;;;;;;;2.97;2.77;;;16.50;99.90;;;;;;477130;249;28817;-69
2021/07/26 01:32:21;;;;;;;2.67;2.47;;;16.50;99.90;;;;;;477140;249;28878;-72
2021/07/26 01:34:22;;;;;;;3.10;2.80;;;16.50;99.90;;;;;;477142;249;28811;-69
2021/07/26 01:36:23;;;;;;;3.80;2.50;;;16.50;99.90;;;;;;477131;249;29266;-69
2021/07/26 01:38:24;;;;;;;2.33;2.23;;;16.50;99.90;;;;;;477140;249;29322;-71
2021/07/26 01:40:26;;;;;;;2.60;2.40;;;16.50;99.90;;;;;;477151;249;29384;-71
2021/07/26 01:42:27;;;;;;;3.37;3.07;;;16.50;99.90;;;;;;477170;249;28914;-72
2021/07/26 01:44:28;;;;;;;2.90;2.70;;;16.40;99.90;;;;;;477145;249;28895;-71
2021/07/26 01:46:29;;;;;;;2.60;2.40;;;16.40;99.90;;;;;;477147;249;28859;-71
2021/07/26 01:48:31;;;;;;;3.23;3.00;;;16.40;99.90;;;;;;477160;249;28879;-71
2021/07/26 01:50:32;;;;;;;2.67;2.47;;;16.40;99.90;;;;;;477155;249;28907;-71
2021/07/26 01:52:33;;;;;;;2.73;2.53;;;16.40;99.90;;;;;;477176;249;28838;-71
2021/07/26 01:54:34;;;;;;;4.33;2.60;;;16.40;99.90;;;;;;477156;249;28828;-71
2021/07/26 01:56:36;;;;;;;3.07;2.73;;;16.40;99.90;;;;;;477018;249;28877;-71
2021/07/26 01:58:37;;;;;;;2.63;2.47;;;16.40;99.90;;;;;;477153;249;28883;-69
2021/07/26 02:00:38;;;;;;;2.93;2.73;;;16.40;99.90;;;;;;477092;249;29366;-69
2021/07/26 02:02:39;;;;;;;2.70;2.50;;;16.40;99.90;;;;;;477143;249;29295;-69
2021/07/26 02:04:41;;;;;;;2.90;2.70;;;16.40;99.90;;;;;;477116;249;29471;-69
2021/07/26 02:06:42;;;;;;;2.90;2.70;;;16.40;99.90;;;;;;477058;249;29057;-69
2021/07/26 02:08:43;;;;;;;3.20;2.90;;;16.40;99.90;;;;;;477093;249;28928;-71
2021/07/26 02:10:44;;;;;;;2.70;2.50;;;16.40;99.90;;;;;;477112;249;28896;-72
2021/07/26 02:12:46;;;;;;;2.70;2.50;;;16.40;99.90;;;;;;477110;249;28780;-69
2021/07/26 02:14:47;;;;;;;2.93;2.37;;;16.40;99.90;;;;;;477084;249;28999;-72
2021/07/26 02:16:48;;;;;;;2.80;2.57;;;16.30;99.90;;;;;;477116;248;28876;-69
2021/07/26 02:18:49;;;;;;;3.33;2.90;;;16.30;99.90;;;;;;477139;249;28887;-72
2021/07/26 02:20:51;;;;;;;3.73;3.40;;;16.30;99.90;;;;;;477148;249;28829;-71
2021/07/26 02:22:52;;;;;;;2.63;2.43;;;16.30;99.90;;;;;;477168;249;28893;-69
2021/07/26 02:24:53;;;;;;;3.00;2.80;;;16.30;99.90;;;;;;477177;249;29283;-70
2021/07/26 02:26:54;;;;;;;3.53;3.10;;;16.20;99.90;;;;;;477171;249;30161;-71
2021/07/26 02:28:56;;;;;;;3.10;2.80;;;16.20;99.90;;;;;;477132;249;29238;-71
2021/07/26 02:30:57;;;;;;;3.37;2.93;;;16.20;99.90;;;;;;477168;249;28815;-71
2021/07/26 02:32:58;;;;;;;3.20;2.90;;;16.20;99.90;;;;;;477130;249;28872;-71
2021/07/26 02:34:59;;;;;;;2.80;2.60;;;16.20;99.90;;;;;;477167;249;28922;-69
2021/07/26 02:37:01;;;;;;;3.00;2.80;;;16.10;99.90;;;;;;477103;249;28868;-69
2021/07/26 02:39:02;;;;;;;2.63;2.43;;;16.20;99.90;;;;;;477147;249;28792;-71
2021/07/26 02:41:03;;;;;;;2.77;2.57;;;16.20;99.90;;;;;;477162;249;28831;-69
2021/07/26 02:43:04;;;;;;;3.20;2.63;;;16.10;99.90;;;;;;477131;249;28884;-71
2021/07/26 02:45:06;;;;;;;2.83;2.63;;;16.10;99.90;;;;;;477131;249;28880;-71
2021/07/26 02:47:07;;;;;;;2.60;2.40;;;16.10;99.90;;;;;;477160;249;28883;-69
2021/07/26 02:49:08;;;;;;;3.20;2.67;;;16.10;99.90;;;;;;477119;248;29366;-71
2021/07/26 02:51:09;;;;;;;2.90;2.70;;;16.00;99.90;;;;;;477131;249;29347;-69
2021/07/26 02:53:11;;;;;;;2.70;2.50;;;16.00;99.90;;;;;;477131;249;29258;-69
2021/07/26 02:55:12;;;;;;;2.77;2.40;;;16.00;99.90;;;;;;477162;249;29312;-70
2021/07/26 02:57:13;;;;;;;2.93;2.73;;;16.00;99.90;;;;;;477150;249;29003;-70
2021/07/26 02:59:14;;;;;;;4.30;3.23;;;16.00;99.90;;;;;;477131;249;28984;-71
2021/07/26 03:01:18;;;;;;;3.27;2.97;;;15.90;99.90;;;;;;477165;249;28938;-70
2021/07/26 03:03:17;;;;;;;3.47;2.67;;;15.90;99.90;;;;;;476993;249;28865;-71
2021/07/26 03:05:18;;;;;;;2.80;2.60;;;15.90;99.90;;;;;;477173;249;28859;-71
2021/07/26 03:07:19;;;;;;;2.77;2.57;;;15.90;99.90;;;;;;477127;249;28808;-71
2021/07/26 03:09:22;;;;;;;2.80;2.60;;;;;;;;;;477084;249;28815;-70
2021/07/26 03:11:23;;;;;;;2.80;2.60;;;15.80;99.90;;;;;;477100;249;27443;-69
2021/07/26 03:13:24;;;;;;;2.73;2.53;;;15.80;99.90;;;;;;477072;249;28845;-70
2021/07/26 03:15:25;;;;;;;2.83;2.63;;;15.80;99.90;;;;;;477148;249;29705;-70
2021/07/26 03:17:27;;;;;;;2.93;2.63;;;15.80;99.90;;;;;;477131;249;29295;-70
2021/07/26 03:19:29;;;;;;;3.03;2.73;;;15.80;99.90;;;;;;477173;249;29337;-71
2021/07/26 03:21:29;;;;;;;3.27;2.83;;;15.80;99.90;;;;;;477064;249;28871;-71
2021/07/26 03:23:30;;;;;;;3.53;2.97;;;15.80;99.90;;;;;;477167;249;28819;-71
2021/07/26 03:25:32;;;;;;;2.90;2.70;;;15.80;99.90;;;;;;477169;249;28897;-69
2021/07/26 03:27:33;;;;;;;3.77;2.80;;;15.80;99.90;;;;;;477159;249;28874;-71
2021/07/26 03:29:34;;;;;;;3.37;3.17;;;15.80;99.90;;;;;;477145;249;28887;-70
2021/07/26 03:31:40;;;;;;;2.73;2.53;;;15.70;99.90;;;;;;477155;249;28813;-70
2021/07/26 03:33:37;;;;;;;2.50;2.30;;;15.80;99.90;;;;;;476785;249;28891;-71
2021/07/26 03:35:38;;;;;;;3.40;3.00;;;15.80;99.90;;;;;;477147;249;28789;-69
2021/07/26 03:37:39;;;;;;;2.50;2.30;;;15.70;99.90;;;;;;477140;249;28904;-71
2021/07/26 03:39:40;;;;;;;2.50;2.40;;;15.70;99.90;;;;;;477029;249;30002;-69
2021/07/26 03:41:42;;;;;;;3.20;2.90;;;15.70;99.90;;;;;;476986;249;29316;-71
2021/07/26 03:43:43;;;;;;;2.77;2.57;;;15.70;99.90;;;;;;476948;249;29302;-71
2021/07/26 03:45:44;;;;;;;2.80;2.57;;;15.70;99.90;;;;;;476899;249;29249;-71
2021/07/26 03:47:45;;;;;;;2.70;2.50;;;15.70;99.90;;;;;;477088;249;28882;-71
2021/07/26 03:49:47;;;;;;;2.90;2.70;;;15.70;99.90;;;;;;477125;249;28895;-69
2021/07/26 03:51:48;;;;;;;2.60;2.40;;;15.60;99.90;;;;;;477168;249;28776;-68
2021/07/26 03:53:51;;;;;;;3.07;2.80;;;15.60;99.90;;;;;;477155;249;28819;-70
2021/07/26 03:55:50;;;;;;;3.33;2.97;;;15.60;99.90;;;;;;477015;249;28866;-69
2021/07/26 03:57:52;;;;;;;2.80;2.50;;;15.60;99.90;;;;;;477132;249;28805;-71
2021/07/26 03:59:53;;;;;;;2.83;2.63;;;15.60;99.90;;;;;;477133;249;29277;-71
2021/07/26 04:01:55;;;;;;;2.97;2.67;;;15.50;99.90;;;;;;477137;249;28863;-71
2021/07/26 04:03:55;;;;;;;3.37;2.80;;;15.50;99.90;;;;;;477096;249;29467;-69
2021/07/26 04:06:07;;;;;;;3.13;2.90;;;15.50;99.90;;;;;;477152;249;29236;-69
2021/07/26 04:08:04;;;;;;;3.10;2.80;;;15.50;99.90;;;;;;476766;249;28824;-69
2021/07/26 04:10:07;;;;;;;2.70;2.50;;;15.50;99.90;;;;;;477118;249;28872;-70
2021/07/26 04:12:09;;;;;;;2.50;2.30;;;15.50;99.90;;;;;;476950;249;28781;-69
2021/07/26 04:14:09;;;;;;;3.30;2.70;;;15.50;99.90;;;;;;476856;249;28828;-71
2021/07/26 04:16:09;;;;;;;3.30;3.00;;;15.50;99.90;;;;;;477021;249;29260;-72
2021/07/26 04:18:10;;;;;;;2.90;2.70;;;15.40;99.90;;;;;;477137;249;29354;-71
2021/07/26 04:20:11;;;;;;;2.60;2.40;;;15.40;99.90;;;;;;477129;245;29290;-69
2021/07/26 04:22:12;;;;;;;2.37;2.20;;;15.40;99.90;;;;;;477134;249;28891;-70
2021/07/26 04:24:14;;;;;;;2.70;2.50;;;15.50;99.90;;;;;;477117;249;28816;-70
2021/07/26 04:26:15;;;;;;;2.80;2.50;;;15.40;99.90;;;;;;477114;249;28852;-70
2021/07/26 04:28:16;;;;;;;3.53;2.70;;;15.50;99.90;;;;;;477142;249;28824;-70
2021/07/26 04:30:17;;;;;;;3.00;2.80;;;15.50;99.90;;;;;;477124;248;28789;-69
2021/07/26 04:32:19;;;;;;;2.83;2.63;;;15.60;99.90;;;;;;477139;249;28901;-70
2021/07/26 04:34:20;;;;;;;2.50;2.30;;;15.60;99.90;;;;;;477134;249;28900;-69
2021/07/26 04:36:21;;;;;;;2.60;2.40;;;15.70;99.90;;;;;;477137;249;28827;-69
2021/07/26 04:38:22;;;;;;;2.60;2.40;;;15.70;99.90;;;;;;477073;249;29297;-70
2021/07/26 04:40:24;;;;;;;2.97;2.77;;;15.80;99.90;;;;;;477132;249;29295;-70
2021/07/26 04:42:25;;;;;;;3.47;3.17;;;15.80;99.90;;;;;;477135;249;29335;-71
2021/07/26 04:44:26;;;;;;;2.67;2.43;;;15.80;99.90;;;;;;477135;249;29287;-72
2021/07/26 04:46:27;;;;;;;2.90;2.70;;;15.80;99.90;;;;;;477141;249;28853;-71
2021/07/26 04:48:29;;;;;;;2.73;2.53;;;15.90;99.90;;;;;;477115;249;28879;-69
2021/07/26 04:50:30;;;;;;;2.73;2.53;;;15.90;99.90;;;;;;477151;249;28788;-69
2021/07/26 04:52:31;;;;;;;2.60;2.40;;;15.90;99.90;;;;;;477149;249;28887;-69
2021/07/26 04:54:32;;;;;;;5.20;3.20;;;16.00;99.90;;;;;;477142;249;28823;-69
2021/07/26 04:56:34;;;;;;;2.93;2.60;;;16.00;99.90;;;;;;477133;249;28867;-69
2021/07/26 04:58:35;;;;;;;2.80;2.60;;;15.90;99.90;;;;;;477136;249;28816;-70
2021/07/26 05:00:36;;;;;;;2.80;2.60;;;16.00;99.90;;;;;;477131;249;28812;-71
2021/07/26 05:02:37;;;;;;;2.50;2.30;;;16.00;99.90;;;;;;477133;249;28854;-71
2021/07/26 05:04:39;;;;;;;4.53;2.47;;;16.10;99.90;;;;;;477128;249;30134;-71
2021/07/26 05:06:40;;;;;;;2.90;2.70;;;16.10;99.90;;;;;;477134;249;29264;-69
2021/07/26 05:08:41;;;;;;;3.00;2.63;;;16.20;99.90;;;;;;477145;248;29311;-71
2021/07/26 05:10:43;;;;;;;2.70;2.50;;;16.30;99.90;;;;;;477118;249;29359;-71
2021/07/26 05:12:44;;;;;;;2.93;2.70;;;16.30;99.90;;;;;;477147;249;28811;-71
2021/07/26 05:14:47;;;;;;;3.50;3.20;;;16.40;99.90;;;;;;477140;248;28971;-71
2021/07/26 05:16:46;;;;;;;2.50;2.30;;;16.40;99.90;;;;;;477062;249;28848;-71
2021/07/26 05:18:52;;;;;;;2.50;2.20;;;16.40;99.90;;;;;;477167;249;28935;-71
2021/07/26 05:20:49;;;;;;;2.53;2.33;;;16.50;99.90;;;;;;476814;246;28880;-69
2021/07/26 05:22:50;;;;;;;3.13;2.87;;;16.50;99.90;;;;;;477168;249;28870;-69
2021/07/26 05:24:51;;;;;;;2.60;2.40;;;16.50;99.90;;;;;;477168;249;28951;-71
2021/07/26 05:26:53;;;;;;;3.03;2.57;;;16.50;99.90;;;;;;477183;249;28976;-69
2021/07/26 05:28:54;;;;;;;3.33;2.80;;;16.50;99.90;;;;;;477185;249;29482;-71
2021/07/26 05:30:55;;;;;;;2.93;2.63;;;16.60;99.90;;;;;;477161;249;30087;-69
2021/07/26 05:32:56;;;;;;;2.83;2.63;;;16.60;99.90;;;;;;477176;249;29440;-69
2021/07/26 05:34:58;;;;;;;3.07;2.87;;;16.60;99.90;;;;;;477153;249;29458;-69
2021/07/26 05:36:59;;;;;;;2.70;2.50;;;16.70;99.90;;;;;;477168;249;28860;-68
2021/07/26 05:39:00;;;;;;;2.57;2.37;;;16.70;99.90;;;;;;477150;249;28996;-71
2021/07/26 05:41:01;;;;;;;3.23;2.93;;;16.70;99.90;;;;;;477145;249;28904;-71
2021/07/26 05:43:03;;;;;;;2.53;2.33;;;16.80;99.90;;;;;;477156;249;29064;-71
2021/07/26 05:45:04;;;;;;;3.80;2.70;;;16.80;99.90;;;;;;477152;249;28944;-69
2021/07/26 05:47:05;;;;;;;2.90;2.70;;;16.80;99.90;;;;;;477161;249;28868;-68
2021/07/26 05:49:06;;;;;;;2.93;2.73;;;16.90;99.90;;;;;;477146;249;28900;-69
2021/07/26 05:51:08;;;;;;;3.20;3.00;;;16.90;99.90;;;;;;477135;249;29351;-69
2021/07/26 05:53:09;;;;;;;3.30;3.10;;;16.90;99.90;;;;;;477162;249;29476;-69
2021/07/26 05:55:10;;;;;;;3.53;2.93;;;17.00;99.90;;;;;;477144;249;29395;-69
2021/07/26 05:57:12;;;;;;;2.87;2.63;;;17.00;99.90;;;;;;477160;249;29340;-69
2021/07/26 05:59:13;;;;;;;3.17;2.87;;;17.10;99.90;;;;;;477111;249;29448;-69
2021/07/26 06:03:21;;;;;;;2.97;2.73;;;17.20;99.90;;;;;;477148;249;28864;-69
2021/07/26 06:05:22;;;;;;;2.80;2.60;;;17.20;99.90;;;;;;477171;249;28907;-69
2021/07/26 06:07:24;;;;;;;3.03;2.73;;;17.30;99.90;;;;;;476942;249;29057;-69
2021/07/26 06:09:26;;;;;;;2.70;2.50;;;17.30;99.90;;;;;;477142;249;28828;-69
2021/07/26 06:11:26;;;;;;;2.50;2.30;;;17.30;99.90;;;;;;476864;249;30300;-69
2021/07/26 06:13:27;;;;;;;3.37;3.07;;;17.40;99.90;;;;;;477099;249;29236;-69
2021/07/26 06:15:29;;;;;;;3.00;2.80;;;17.40;99.90;;;;;;477132;249;29367;-69
2021/07/26 06:17:30;;;;;;;3.67;3.37;;;17.50;99.90;;;;;;477150;249;29314;-69
2021/07/26 06:19:31;;;;;;;4.13;3.00;;;17.50;99.90;;;;;;477166;249;28833;-69
2021/07/26 06:21:32;;;;;;;2.80;2.60;;;17.60;99.90;;;;;;477151;249;28921;-72
2021/07/26 06:23:34;;;;;;;3.20;2.90;;;17.60;99.90;;;;;;477122;249;28919;-69
2021/07/26 06:25:35;;;;;;;3.30;3.00;;;17.70;99.90;;;;;;477143;249;28884;-69
2021/07/26 06:27:36;;;;;;;3.17;2.90;;;17.80;99.90;;;;;;477140;249;28793;-69
2021/07/26 06:29:37;;;;;;;3.50;3.20;;;17.80;99.90;;;;;;477148;249;28832;-72
2021/07/26 06:31:39;;;;;;;3.43;2.97;;;17.90;99.90;;;;;;477126;249;29247;-70
2021/07/26 06:33:40;;;;;;;3.20;2.90;;;17.90;99.90;;;;;;477155;249;28865;-70
2021/07/26 06:35:41;;;;;;;2.63;2.43;;;17.90;99.90;;;;;;477139;249;28832;-71
2021/07/26 06:37:42;;;;;;;3.23;3.00;;;17.90;99.90;;;;;;477134;249;29247;-71
2021/07/26 06:39:44;;;;;;;5.47;3.30;;;18.00;99.90;;;;;;477143;249;29297;-71
2021/07/26 06:41:45;;;;;;;3.17;2.87;;;18.00;99.90;;;;;;477162;249;29489;-72
2021/07/26 06:43:46;;;;;;;4.17;3.27;;;18.00;99.90;;;;;;477159;249;28928;-71
2021/07/26 06:45:47;;;;;;;3.10;2.90;;;18.00;99.90;;;;;;477150;249;28825;-71
2021/07/26 06:47:49;;;;;;;4.27;3.30;;;18.10;99.90;;;;;;477150;249;28888;-71
2021/07/26 06:49:50;;;;;;;3.27;2.97;;;18.10;99.90;;;;;;477028;249;28858;-71
2021/07/26 06:51:51;;;;;;;3.40;3.10;;;18.00;99.90;;;;;;477150;249;28815;-71
2021/07/26 06:53:52;;;;;;;4.20;3.37;;;18.10;99.90;;;;;;477141;248;28801;-71
2021/07/26 06:55:54;;;;;;;2.97;2.67;;;18.10;99.90;;;;;;477173;249;28809;-71
2021/07/26 06:57:55;;;;;;;3.17;2.97;;;18.10;99.90;;;;;;477147;249;28874;-69
2021/07/26 06:59:56;;;;;;;2.80;2.60;;;18.20;99.90;;;;;;477142;249;28820;-71
2021/07/26 07:01:57;;;;;;;3.27;2.97;;;18.30;99.90;;;;;;477158;249;29854;-69
2021/07/26 07:03:59;;;;;;;3.20;2.87;;;18.30;99.90;;;;;;477134;248;29316;-71
2021/07/26 07:06:00;;;;;;;3.50;3.20;;;18.30;99.90;;;;;;477153;249;29359;-69
2021/07/26 07:08:01;;;;;;;3.60;3.30;;;18.30;99.90;;;;;;477157;249;28865;-69
2021/07/26 07:10:02;;;;;;;3.20;3.00;;;18.40;99.90;;;;;;477152;249;28821;-69
2021/07/26 07:12:04;;;;;;;3.63;3.33;;;18.40;99.90;;;;;;477175;249;28980;-72
2021/07/26 07:14:05;;;;;;;3.50;3.20;;;18.50;99.90;;;;;;477172;249;28881;-71
2021/07/26 07:16:06;;;;;;;3.70;3.30;;;18.50;99.90;;;;;;477128;249;28908;-71
2021/07/26 07:18:07;;;;;;;4.53;3.70;;;18.50;99.90;;;;;;477143;249;28880;-71
2021/07/26 07:20:09;;;;;;;4.73;3.30;;;18.50;99.90;;;;;;477138;249;28945;-71
2021/07/26 07:22:10;;;;;;;3.40;3.10;;;18.60;99.90;;;;;;477137;249;29150;-71
2021/07/26 07:24:11;;;;;;;4.57;3.30;;;18.60;99.90;;;;;;477155;249;28865;-70
2021/07/26 07:26:12;;;;;;;3.63;3.23;;;18.70;99.90;;;;;;477082;249;29300;-69
2021/07/26 07:28:14;;;;;;;3.83;3.50;;;18.70;99.90;;;;;;477138;249;29315;-71
2021/07/26 07:30:16;;;;;;;3.47;3.17;;;18.80;99.90;;;;;;477135;249;29402;-72
2021/07/26 07:32:16;;;;;;;4.87;3.80;;;18.90;99.90;;;;;;477125;249;28843;-71
2021/07/26 07:34:17;;;;;;;3.47;3.17;;;18.90;99.90;;;;;;477167;249;28848;-71
2021/07/26 07:36:19;;;;;;;4.13;3.50;;;19.00;99.90;;;;;;477135;249;28927;-71
2021/07/26 07:38:20;;;;;;;3.30;2.97;;;19.00;99.90;;;;;;477133;249;28829;-71
2021/07/26 07:40:23;;;;;;;3.47;3.17;;;19.10;99.90;;;;;;477133;249;28838;-71
2021/07/26 07:42:22;;;;;;;9.77;3.90;;;19.20;99.90;;;;;;477015;249;28924;-71
2021/07/26 07:44:29;;;;;;;7.17;3.67;;;19.30;99.90;;;;;;477174;249;28914;-71
2021/07/26 07:46:25;;;;;;;3.50;3.20;;;19.20;99.90;;;;;;476734;249;28821;-71
2021/07/26 07:48:27;;;;;;;4.83;3.70;;;19.30;99.90;;;;;;477156;249;28780;-71
2021/07/26 07:50:27;;;;;;;3.47;3.13;;;19.40;99.90;;;;;;477115;249;29324;-71
2021/07/26 07:52:29;;;;;;;5.10;3.50;;;19.40;99.90;;;;;;477137;249;29362;-70
2021/07/26 07:54:30;;;;;;;4.60;3.47;;;19.50;99.90;;;;;;477143;249;29224;-72
2021/07/26 07:56:33;;;;;;;3.90;3.60;;;19.50;99.90;;;;;;477142;249;29536;-71
2021/07/26 07:58:32;;;;;;;4.50;3.63;;;19.50;99.90;;;;;;477051;249;28818;-70
2021/07/26 08:00:34;;;;;;;4.13;3.73;;;19.60;99.90;;;;;;477147;249;28821;-71
2021/07/26 08:02:35;;;;;;;3.73;3.20;;;19.60;99.90;;;;;;477143;249;28825;-72
2021/07/26 08:04:39;;;;;;;3.40;3.20;;;19.70;99.90;;;;;;477139;249;28776;-70
2021/07/26 08:06:40;;;;;;;4.37;3.60;;;19.80;99.90;;;;;;476918;249;28941;-71
2021/07/26 08:08:39;;;;;;;3.27;3.07;;;20.10;99.90;;;;;;476921;249;28781;-70
2021/07/26 08:10:40;;;;;;;4.20;3.67;;;20.20;99.90;;;;;;477116;249;28789;-72
2021/07/26 08:12:42;;;;;;;4.10;3.70;;;20.40;99.90;;;;;;477132;249;28821;-71
2021/07/26 08:14:42;;;;;;;4.53;3.73;;;20.50;99.90;;;;;;477132;249;29221;-71
2021/07/26 08:16:44;;;;;;;5.83;3.87;;;20.70;99.90;;;;;;477141;249;29428;-71
2021/07/26 08:18:45;;;;;;;3.77;3.30;;;20.90;99.90;;;;;;477153;249;29224;-71
2021/07/26 08:20:46;;;;;;;3.90;3.33;;;21.00;99.90;;;;;;477079;249;29255;-70
2021/07/26 08:22:47;;;;;;;3.70;3.40;;;21.10;99.90;;;;;;477145;249;28813;-71
2021/07/26 08:24:49;;;;;;;4.10;3.57;;;21.10;99.90;;;;;;477148;249;28790;-70
2021/07/26 08:26:50;;;;;;;4.10;3.00;;;21.20;99.90;;;;;;477102;249;28821;-69
2021/07/26 08:28:51;;;;;;;5.00;3.43;;;21.20;99.90;;;;;;477138;249;28793;-70
2021/07/26 08:30:52;;;;;;;3.67;3.33;;;21.40;99.90;;;;;;477127;249;28809;-71
2021/07/26 08:32:54;;;;;;;3.50;3.20;;;21.70;99.90;;;;;;477134;249;28911;-71
2021/07/26 08:34:55;;;;;;;3.50;3.20;;;21.80;99.90;;;;;;477130;249;28913;-71
2021/07/26 08:36:58;;;;;;;3.20;3.00;;;21.90;99.90;;;;;;477149;249;28822;-71
2021/07/26 08:38:57;;;;;;;3.90;3.33;;;21.70;99.90;;;;;;477061;249;30111;-71
2021/07/26 08:40:59;;;;;;;3.67;3.30;;;21.50;99.90;;;;;;477162;249;29236;-71
2021/07/26 08:43:04;;;;;;;3.57;3.20;;;21.40;99.90;;;;;;477134;249;29289;-71
2021/07/26 08:45:04;;;;;;;3.33;3.10;;;21.30;99.90;;;;;;477109;249;28814;-70
2021/07/26 08:47:05;;;;;;;3.57;3.27;;;21.30;99.90;;;;;;477182;249;28789;-71
2021/07/26 08:49:06;;;;;;;3.43;3.13;;;21.20;99.90;;;;;;477201;248;28916;-71
2021/07/26 08:51:08;;;;;;;3.20;2.90;;;21.10;99.90;;;;;;477142;249;28874;-71
2021/07/26 08:53:09;;;;;;;3.63;3.33;;;21.20;99.90;;;;;;477163;249;28978;-70
2021/07/26 08:55:11;;;;;;;4.80;2.97;;;21.30;99.90;;;;;;477166;249;29495;-72
2021/07/26 08:57:11;;;;;;;4.60;3.07;;;21.30;99.90;;;;;;477168;249;29460;-71
2021/07/26 08:59:13;;;;;;;4.13;3.27;;;21.30;99.90;;;;;;477172;249;29461;-71
2021/07/26 09:01:14;;;;;;;3.33;3.03;;;21.40;99.90;;;;;;477179;249;29455;-71
2021/07/26 09:03:15;;;;;;;6.17;3.40;;;21.60;99.90;;;;;;477145;249;28989;-71
2021/07/26 09:05:16;;;;;;;3.43;3.13;;;21.70;99.90;;;;;;477172;249;28924;-70
2021/07/26 09:07:18;;;;;;;3.27;3.00;;;21.80;99.90;;;;;;477170;249;28868;-71
2021/07/26 09:09:19;;;;;;;4.30;3.23;;;22.00;99.90;;;;;;477132;249;29021;-72
2021/07/26 09:11:20;;;;;;;3.40;3.10;;;22.00;99.90;;;;;;477119;249;28881;-71
2021/07/26 09:13:21;;;;;;;3.87;3.47;;;22.20;99.90;;;;;;477043;249;28979;-72
2021/07/26 09:15:23;;;;;;;4.20;3.83;;;22.10;99.90;;;;;;477066;249;28870;-71
2021/07/26 09:17:24;;;;;;;3.47;3.17;;;21.80;99.90;;;;;;476994;246;28907;-71
2021/07/26 09:19:25;;;;;;;3.70;3.40;;;21.60;99.90;;;;;;477124;249;29006;-71
2021/07/26 09:21:26;;;;;;;3.30;3.03;;;21.60;99.90;;;;;;477150;249;30138;-71
2021/07/26 09:23:28;;;;;;;3.27;2.97;;;21.70;99.90;;;;;;477158;249;29404;-71
2021/07/26 09:25:29;;;;;;;3.53;3.23;;;21.80;99.90;;;;;;477199;249;29395;-71
2021/07/26 09:27:30;;;;;;;3.50;3.20;;;22.00;99.90;;;;;;477169;249;28973;-72
2021/07/26 09:29:31;;;;;;;3.70;3.10;;;22.10;99.90;;;;;;477150;249;28924;-71
2021/07/26 09:31:33;;;;;;;3.10;2.90;;;22.20;99.90;;;;;;477172;249;28868;-71
2021/07/26 09:33:34;;;;;;;3.73;3.43;;;22.20;99.90;;;;;;477173;249;28899;-71
2021/07/26 09:35:35;;;;;;;3.57;3.27;;;21.90;99.90;;;;;;477134;249;28920;-72
2021/07/26 09:37:37;;;;;;;3.70;3.30;;;21.70;99.90;;;;;;477149;249;28916;-71
2021/07/26 09:39:38;;;;;;;3.77;3.47;;;21.70;99.90;;;;;;477126;249;28916;-71
2021/07/26 09:41:39;;;;;;;4.00;3.70;;;21.60;99.90;;;;;;477128;249;29276;-72
2021/07/26 09:43:41;;;;;;;3.30;3.00;;;21.50;99.90;;;;;;477143;249;29241;-71
2021/07/26 09:45:42;;;;;;;3.53;3.23;;;21.60;99.90;;;;;;477115;249;29359;-72
2021/07/26 09:47:43;;;;;;;3.40;3.10;;;21.50;99.90;;;;;;477112;249;29242;-72
2021/07/26 09:49:44;;;;;;;2.93;2.73;;;21.60;99.90;;;;;;477109;249;29384;-72
2021/07/26 09:51:45;;;;;;;2.93;2.73;;;21.60;99.90;;;;;;477154;249;28927;-71
2021/07/26 09:53:47;;;;;;;3.63;3.33;;;21.70;99.90;;;;;;477122;249;28869;-71
2021/07/26 09:55:48;;;;;;;3.70;3.40;;;21.80;99.90;;;;;;477122;249;28927;-71
2021/07/26 09:57:49;;;;;;;3.30;3.00;;;22.00;99.90;;;;;;477099;249;28866;-71
2021/07/26 09:59:50;;;;;;;3.07;2.80;;;22.20;99.90;;;;;;477115;248;28881;-71
2021/07/26 10:01:51;;;;;;;3.10;2.90;;;22.40;99.90;;;;;;477052;249;28803;-72
2021/07/26 10:03:53;;;;;;;3.50;3.20;;;22.40;99.90;;;;;;477080;249;28872;-72
2021/07/26 10:05:54;;;;;;;3.30;3.00;;;22.30;99.90;;;;;;477088;249;28909;-71
2021/07/26 10:07:55;;;;;;;3.53;3.23;;;22.30;99.90;;;;;;477137;249;28781;-71
2021/07/26 10:09:56;;;;;;;3.27;2.97;;;21.90;99.90;;;;;;477154;249;29289;-71
2021/07/26 10:11:58;;;;;;;3.40;3.10;;;21.70;99.90;;;;;;477152;249;29478;-71
2021/07/26 10:13:59;;;;;;;3.53;3.07;;;21.70;99.90;;;;;;477163;249;29315;-72
2021/07/26 10:16:00;;;;;;;3.03;2.83;;;21.70;99.90;;;;;;477167;249;28884;-71
2021/07/26 10:18:01;;;;;;;2.77;2.57;;;21.60;99.90;;;;;;477172;249;28788;-71
2021/07/26 10:20:03;;;;;;;3.10;2.90;;;21.40;99.90;;;;;;477143;249;28902;-71
2021/07/26 10:22:04;;;;;;;3.77;3.23;;;21.30;99.90;;;;;;477137;249;28897;-71
2021/07/26 10:24:05;;;;;;;4.13;2.80;;;21.10;99.90;;;;;;477132;249;28989;-72
2021/07/26 10:26:06;;;;;;;3.33;3.13;;;21.10;99.90;;;;;;477194;249;28916;-71
2021/07/26 10:28:08;;;;;;;3.23;2.93;;;21.20;99.90;;;;;;477159;249;28877;-71
2021/07/26 10:30:09;;;;;;;3.63;2.93;;;21.30;99.90;;;;;;477163;249;28908;-71
2021/07/26 10:32:10;;;;;;;3.40;2.83;;;21.60;99.90;;;;;;477123;249;29381;-71
2021/07/26 10:34:13;;;;;;;3.50;3.00;;;21.80;99.90;;;;;;477147;249;29411;-71